Time;durP1;ratioP1;P1;durP2;ratioP2;P2;SDS_P1;SDS_P2;PMS_P1;PMS_P2;Temp;Humidity;BMP_temperature;BMP_pressure;BME280_temperature;BME280_humidity;BME280_pressure;Samples;Min_cycle;Max_cycle;Signal;HPM_P1;HPM_P2
2022/08/17 00:02:15;;;;;;;25.45;19.63;;;20.50;59.60;;;;;;5002670;28;20214;-64
2022/08/17 00:04:43;;;;;;;23.58;19.75;;;20.30;57.60;;;;;;5019332;28;20267;-64
2022/08/17 00:07:10;;;;;;;28.27;20.27;;;20.40;59.20;;;;;;5027173;28;20471;-64
2022/08/17 00:09:37;;;;;;;25.80;19.80;;;20.40;59.20;;;;;;5010173;28;20256;-64
2022/08/17 00:12:06;;;;;;;23.42;20.48;;;20.40;59.00;;;;;;5022259;28;20445;-64
2022/08/17 00:14:33;;;;;;;27.05;19.80;;;20.40;59.70;;;;;;5029121;28;20218;-62
2022/08/17 00:17:01;;;;;;;26.45;20.55;;;20.30;59.50;;;;;;5015750;28;20430;-64
2022/08/17 00:19:28;;;;;;;25.35;20.30;;;20.40;59.70;;;;;;5005935;28;20355;-64
2022/08/17 00:21:59;;;;;;;28.52;21.02;;;20.40;58.50;;;;;;5021096;28;20284;-64
2022/08/17 00:24:28;;;;;;;30.13;22.92;;;20.40;60.30;;;;;;5026453;28;20568;-62
2022/08/17 00:26:55;;;;;;;32.00;23.20;;;20.20;60.00;;;;;;5010107;28;20516;-64
2022/08/17 00:29:23;;;;;;;32.45;23.85;;;20.50;60.40;;;;;;5026423;28;20209;-62
2022/08/17 00:31:50;;;;;;;34.08;23.73;;;18.70;63.00;;;;;;5015953;28;20208;-62
2022/08/17 00:34:17;;;;;;;36.60;24.10;;;20.30;63.20;;;;;;5006408;28;20565;-64
2022/08/17 00:36:44;;;;;;;30.83;23.58;;;20.20;62.50;;;;;;5024822;28;20691;-62
2022/08/17 00:39:12;;;;;;;31.30;24.02;;;;;;;;;;5027821;28;20207;-63
2022/08/17 00:41:38;;;;;;;36.50;25.73;;;20.20;61.30;;;;;;5010945;28;20232;-63
2022/08/17 00:44:08;;;;;;;34.72;26.02;;;20.30;61.00;;;;;;5027202;28;20867;-64
2022/08/17 00:46:41;;;;;;;32.70;23.55;;;20.20;58.60;;;;;;5032685;28;20201;-63
2022/08/17 00:49:10;;;;;;;30.75;23.80;;;20.20;55.90;;;;;;5031845;28;20200;-64
2022/08/17 00:51:41;;;;;;;34.22;24.13;;;20.00;54.10;;;;;;4999673;28;20220;-64
2022/08/17 00:54:12;;;;;;;31.30;24.00;;;19.90;63.80;;;;;;5024861;28;20897;-64
2022/08/17 00:56:44;;;;;;;30.45;23.15;;;19.90;62.20;;;;;;5014555;28;20214;-62
2022/08/17 00:59:13;;;;;;;27.75;20.88;;;19.90;64.50;;;;;;5024120;28;20598;-63
2022/08/17 01:01:42;;;;;;;25.27;20.35;;;;;;;;;;5023462;28;20233;-63
2022/08/17 01:04:10;;;;;;;30.58;22.90;;;19.90;57.30;;;;;;5023038;28;20733;-63
2022/08/17 01:06:37;;;;;;;31.70;22.60;;;19.90;56.20;;;;;;5003420;28;20209;-63
2022/08/17 01:09:04;;;;;;;26.52;21.83;;;19.90;58.90;;;;;;5025085;28;20409;-64
2022/08/17 01:11:34;;;;;;;28.85;22.85;;;19.90;59.90;;;;;;5026567;28;20208;-64
2022/08/17 01:14:02;;;;;;;27.42;22.13;;;19.80;63.60;;;;;;5012477;28;20799;-64
2022/08/17 01:16:31;;;;;;;30.10;22.02;;;19.90;61.90;;;;;;5023748;28;20206;-64
2022/08/17 01:19:01;;;;;;;30.38;22.27;;;19.80;59.50;;;;;;5024664;28;20786;-63
2022/08/17 01:21:36;;;;;;;20.73;18.48;;;19.80;59.10;;;;;;5000100;28;20236;-63
2022/08/17 01:24:04;;;;;;;16.02;14.32;;;19.70;55.50;;;;;;5016767;28;20436;-62
2022/08/17 01:26:34;;;;;;;16.50;13.63;;;19.50;48.30;;;;;;5026853;28;20196;-64
2022/08/17 01:29:02;;;;;;;14.88;12.95;;;19.30;48.30;;;;;;5005821;28;20450;-63
2022/08/17 01:31:34;;;;;;;17.30;13.35;;;19.30;48.10;;;;;;5024630;28;20715;-63
2022/08/17 01:34:06;;;;;;;13.25;11.95;;;21.10;48.40;;;;;;5021513;28;20430;-63
2022/08/17 01:36:32;;;;;;;12.48;10.95;;;19.20;44.00;;;;;;5000795;28;20212;-64
2022/08/17 01:38:59;;;;;;;12.07;9.98;;;18.60;46.20;;;;;;5022697;28;20903;-63
2022/08/17 01:41:29;;;;;;;11.35;10.15;;;18.90;45.10;;;;;;5028258;28;20647;-63
2022/08/17 01:44:00;;;;;;;10.68;9.57;;;18.70;50.80;;;;;;5022715;28;20229;-63
2022/08/17 01:46:29;;;;;;;10.73;9.15;;;18.60;54.50;;;;;;5013567;28;20198;-63
2022/08/17 01:48:57;;;;;;;12.27;10.18;;;18.60;54.70;;;;;;5023922;28;20651;-63
2022/08/17 01:51:25;;;;;;;16.75;12.27;;;19.20;60.50;;;;;;4998305;28;20206;-63
2022/08/17 01:53:57;;;;;;;20.77;12.93;;;18.50;63.00;;;;;;5019386;28;20210;-63
2022/08/17 01:56:25;;;;;;;48.40;11.88;;;18.60;68.70;;;;;;5023636;28;20197;-63
2022/08/17 01:58:53;;;;;;;54.30;14.07;;;18.60;65.70;;;;;;5012290;28;20399;-63
2022/08/17 02:01:23;;;;;;;29.10;10.32;;;18.80;67.50;;;;;;5014959;28;20702;-63
2022/08/17 02:03:49;;;;;;;13.80;8.90;;;18.70;63.70;;;;;;5015256;28;20331;-62
2022/08/17 02:06:17;;;;;;;11.02;8.18;;;18.60;67.20;;;;;;5003968;28;20225;-63
2022/08/17 02:08:45;;;;;;;10.68;9.68;;;18.60;68.00;;;;;;5022824;28;20202;-62
2022/08/17 02:11:20;;;;;;;10.73;9.65;;;18.60;68.90;;;;;;5030791;28;20513;-64
2022/08/17 02:13:49;;;;;;;10.30;9.30;;;18.50;69.60;;;;;;5024526;28;20193;-62
2022/08/17 02:16:17;;;;;;;11.32;10.23;;;18.60;73.70;;;;;;5011098;28;20213;-63
2022/08/17 02:18:45;;;;;;;11.23;10.13;;;18.40;77.20;;;;;;5024300;28;20190;-62
2022/08/17 02:21:13;;;;;;;12.60;11.05;;;18.70;74.50;;;;;;5013434;28;20221;-63
2022/08/17 02:23:44;;;;;;;12.95;11.57;;;19.10;75.80;;;;;;4995804;28;20209;-63
2022/08/17 02:26:12;;;;;;;14.55;12.15;;;18.70;72.40;;;;;;5024663;28;20330;-63
2022/08/17 02:28:38;;;;;;;14.68;12.35;;;18.90;70.40;;;;;;5021574;28;20193;-63
2022/08/17 02:31:08;;;;;;;16.33;13.80;;;18.70;68.10;;;;;;5014516;28;20204;-63
2022/08/17 02:33:37;;;;;;;15.35;13.60;;;18.80;69.70;;;;;;5025453;28;20197;-63
2022/08/17 02:36:05;;;;;;;18.73;13.90;;;18.70;69.60;;;;;;5017824;28;20435;-63
2022/08/17 02:38:32;;;;;;;15.70;14.02;;;18.70;66.30;;;;;;5002430;28;20219;-63
2022/08/17 02:40:59;;;;;;;20.58;16.17;;;19.00;70.80;;;;;;5017409;28;20214;-63
2022/08/17 02:43:26;;;;;;;19.75;15.75;;;18.70;68.10;;;;;;5028556;28;20198;-63
2022/08/17 02:45:54;;;;;;;23.10;17.13;;;18.80;68.90;;;;;;5029080;28;20434;-63
2022/08/17 02:48:21;;;;;;;23.33;17.08;;;18.90;68.20;;;;;;5019558;28;20574;-63
2022/08/17 02:50:49;;;;;;;23.40;18.35;;;18.50;72.70;;;;;;5018698;28;20205;-63
2022/08/17 02:53:16;;;;;;;20.45;17.30;;;18.90;71.40;;;;;;5004180;28;20205;-62
2022/08/17 02:55:43;;;;;;;21.25;18.02;;;18.80;69.10;;;;;;5029394;28;20587;-63
2022/08/17 02:58:12;;;;;;;23.15;18.42;;;18.70;75.60;;;;;;5028885;28;20196;-63
2022/08/17 03:00:42;;;;;;;21.08;18.33;;;18.70;76.20;;;;;;5028218;28;20211;-63
2022/08/17 03:03:12;;;;;;;22.70;18.92;;;18.70;76.70;;;;;;5016791;28;20711;-63
2022/08/17 03:05:40;;;;;;;21.58;18.63;;;18.70;80.20;;;;;;5019522;28;20205;-62
2022/08/17 03:08:08;;;;;;;30.08;19.17;;;18.70;76.20;;;;;;5001507;28;20205;-63
2022/08/17 03:10:35;;;;;;;30.50;18.70;;;18.70;76.10;;;;;;5029214;28;20213;-63
2022/08/17 03:13:02;;;;;;;123.28;20.85;;;18.50;73.70;;;;;;5018911;28;20722;-63
2022/08/17 03:15:32;;;;;;;21.08;18.25;;;18.50;80.00;;;;;;5029888;28;20237;-62
2022/08/17 03:18:00;;;;;;;28.30;18.30;;;18.30;77.60;;;;;;5014694;28;20209;-63
2022/08/17 03:20:30;;;;;;;243.55;23.65;;;18.20;78.70;;;;;;5029737;28;20197;-63
2022/08/17 03:22:58;;;;;;;165.95;20.85;;;17.90;87.90;;;;;;4990670;28;20451;-63
2022/08/17 03:25:30;;;;;;;75.95;20.77;;;18.00;83.80;;;;;;5025073;28;22468;-63
2022/08/17 03:27:57;;;;;;;145.68;23.33;;;18.00;89.40;;;;;;5015669;28;20216;-63
2022/08/17 03:30:26;;;;;;;68.60;23.60;;;18.10;92.80;;;;;;5025961;28;20206;-63
2022/08/17 03:32:58;;;;;;;81.32;24.27;;;18.50;96.50;;;;;;5006371;28;20232;-63
2022/08/17 03:35:28;;;;;;;42.92;23.17;;;18.40;95.70;;;;;;5036176;28;20213;-63
2022/08/17 03:37:55;;;;;;;76.05;23.75;;;18.40;98.20;;;;;;5019694;28;20205;-63
2022/08/17 03:40:23;;;;;;;64.03;23.90;;;18.50;97.40;;;;;;4987316;28;21737;-63
2022/08/17 03:42:52;;;;;;;57.60;22.77;;;18.60;98.60;;;;;;5028563;28;20244;-63
2022/08/17 03:56:41;;;;;;;97.38;23.83;;;18.60;99.40;;;;;;5031471;28;20224;-63
2022/08/17 03:56:42;;;;;;;46.60;23.20;;;18.70;99.90;;;;;;5030149;28;20224;-62
2022/08/17 03:59:11;;;;;;;34.42;23.42;;;18.90;99.90;;;;;;5017799;28;20588;-62
2022/08/17 04:01:38;;;;;;;50.30;22.98;;;19.00;99.90;;;;;;5018494;28;20571;-63
2022/08/17 04:04:06;;;;;;;33.53;22.45;;;;;;;;;;5015473;28;20235;-63
2022/08/17 04:06:33;;;;;;;40.42;21.33;;;19.10;99.90;;;;;;5030440;28;20202;-63
2022/08/17 04:08:59;;;;;;;29.73;21.85;;;19.10;99.90;;;;;;5004809;28;20746;-62
2022/08/17 04:11:26;;;;;;;59.45;21.08;;;19.00;99.90;;;;;;5016883;28;20212;-63
2022/08/17 04:13:53;;;;;;;35.47;22.65;;;19.00;99.90;;;;;;5013572;28;20718;-62
2022/08/17 04:16:21;;;;;;;45.78;22.80;;;18.90;99.90;;;;;;5007638;28;20206;-64
2022/08/17 04:18:48;;;;;;;91.57;25.05;;;18.90;99.90;;;;;;4993138;28;20637;-63
2022/08/17 04:21:15;;;;;;;66.22;21.13;;;18.80;99.90;;;;;;5019821;28;20194;-62
2022/08/17 04:23:42;;;;;;;96.10;21.17;;;;;;;;;;5011778;28;20213;-63
2022/08/17 04:26:08;;;;;;;91.90;21.17;;;18.80;99.90;;;;;;5002359;28;20589;-63
2022/08/17 04:28:35;;;;;;;76.78;19.48;;;18.80;99.90;;;;;;5018398;28;20220;-63
2022/08/17 04:31:03;;;;;;;64.97;19.60;;;18.80;99.90;;;;;;5016671;28;20209;-63
2022/08/17 04:33:31;;;;;;;39.45;20.13;;;18.80;99.90;;;;;;5008926;28;20304;-64
2022/08/17 04:36:00;;;;;;;89.53;20.08;;;18.70;99.90;;;;;;5028115;28;20201;-63
2022/08/17 04:38:30;;;;;;;47.20;18.65;;;18.80;99.90;;;;;;5017075;28;20204;-63
2022/08/17 04:43:43;;;;;;;38.63;18.63;;;18.80;99.90;;;;;;5025694;28;20283;-63
2022/08/17 04:46:13;;;;;;;26.05;18.83;;;18.80;99.90;;;;;;5015787;28;20217;-63
2022/08/17 04:48:43;;;;;;;54.60;19.52;;;18.80;99.90;;;;;;5017067;28;20591;-63
2022/08/17 04:51:12;;;;;;;63.10;19.60;;;18.90;99.90;;;;;;5010347;28;20209;-63
2022/08/17 04:53:40;;;;;;;49.65;19.40;;;19.10;99.90;;;;;;5019497;28;20202;-64
2022/08/17 04:56:08;;;;;;;40.78;18.77;;;18.70;99.90;;;;;;4994821;28;20211;-63
2022/08/17 04:58:35;;;;;;;39.53;19.35;;;18.90;99.90;;;;;;5016666;28;20214;-63
2022/08/17 05:01:02;;;;;;;29.02;19.88;;;19.00;99.90;;;;;;5010408;28;20226;-63
2022/08/17 05:03:29;;;;;;;30.98;19.17;;;19.00;99.90;;;;;;5018576;28;20606;-63
2022/08/17 05:06:02;;;;;;;26.98;19.30;;;19.00;99.90;;;;;;5054544;22;20297;-63
2022/08/17 05:08:29;;;;;;;26.00;19.63;;;19.10;99.90;;;;;;5051004;28;20203;-63
2022/08/17 05:10:56;;;;;;;27.73;19.38;;;19.10;99.90;;;;;;5023553;28;20999;-63
2022/08/17 05:13:25;;;;;;;26.50;18.73;;;18.80;99.90;;;;;;5047135;28;20219;-63
2022/08/17 05:15:54;;;;;;;39.08;18.67;;;19.20;99.90;;;;;;5053308;28;20221;-64
2022/08/17 05:18:22;;;;;;;39.25;19.02;;;20.70;99.90;;;;;;5029033;28;20208;-63
2022/08/17 05:20:48;;;;;;;29.33;18.60;;;19.00;99.90;;;;;;5022971;28;20229;-63
2022/08/17 05:23:18;;;;;;;58.22;18.15;;;18.80;99.90;;;;;;5051869;28;20644;-63
2022/08/17 05:25:47;;;;;;;31.27;19.30;;;19.00;99.90;;;;;;5011370;28;21166;-64
2022/08/17 05:28:15;;;;;;;31.60;17.55;;;19.00;99.90;;;;;;5043040;28;20608;-64
2022/08/17 05:30:43;;;;;;;23.85;18.15;;;19.00;99.90;;;;;;5052163;28;20316;-64
2022/08/17 05:33:13;;;;;;;22.83;18.38;;;19.10;99.90;;;;;;5039560;28;20243;-63
2022/08/17 05:35:43;;;;;;;26.88;19.58;;;19.30;99.90;;;;;;5043304;28;20235;-63
2022/08/17 05:38:10;;;;;;;25.30;19.60;;;19.40;99.90;;;;;;5052398;28;20979;-63
2022/08/17 05:40:39;;;;;;;25.88;19.67;;;19.30;99.90;;;;;;5044186;28;20603;-63
2022/08/17 05:43:09;;;;;;;40.10;20.55;;;19.50;99.90;;;;;;5018244;28;20329;-63
2022/08/17 05:45:40;;;;;;;31.27;20.33;;;16.50;99.90;;;;;;5059734;28;20200;-63
2022/08/17 05:48:09;;;;;;;27.50;20.00;;;19.40;99.90;;;;;;5057649;28;20196;-63
2022/08/17 05:50:47;;;;;;;29.75;21.17;;;19.40;99.90;;;;;;5058895;28;20207;-63
2022/08/17 05:53:22;;;;;;;30.48;20.80;;;19.30;99.90;;;;;;5055030;28;20321;-63
2022/08/17 05:56:01;;;;;;;30.25;20.35;;;19.50;99.90;;;;;;5051632;28;20200;-63
2022/08/17 05:58:39;;;;;;;26.73;20.45;;;19.60;99.90;;;;;;5035674;28;20218;-63
2022/08/17 06:01:13;;;;;;;27.85;20.50;;;19.70;99.90;;;;;;5055150;28;20711;-64
2022/08/17 06:03:46;;;;;;;26.27;21.25;;;19.70;99.90;;;;;;5056315;28;20223;-63
2022/08/17 06:06:26;;;;;;;28.70;22.55;;;19.80;99.90;;;;;;5060869;28;20372;-64
2022/08/17 06:09:04;;;;;;;29.73;22.70;;;20.00;99.90;;;;;;5042319;28;20207;-64
2022/08/17 06:11:40;;;;;;;31.85;23.85;;;19.80;99.90;;;;;;5059193;28;20197;-63
2022/08/17 06:14:31;;;;;;;32.58;23.67;;;20.00;99.90;;;;;;5035267;28;20214;-64
2022/08/17 06:17:02;;;;;;;36.25;24.33;;;19.90;99.90;;;;;;5055992;28;20205;-65
2022/08/17 06:19:38;;;;;;;33.97;24.52;;;19.80;99.90;;;;;;5062065;28;20207;-63
2022/08/17 06:22:07;;;;;;;35.30;24.02;;;20.00;99.90;;;;;;5048175;28;20479;-64
2022/08/17 06:24:38;;;;;;;31.80;24.02;;;20.00;99.90;;;;;;5051082;28;20999;-63
2022/08/17 06:27:13;;;;;;;33.55;24.52;;;20.20;99.90;;;;;;5043625;28;21218;-64
2022/08/17 06:29:48;;;;;;;34.60;24.20;;;20.20;99.90;;;;;;5035322;28;20207;-63
2022/08/17 06:32:16;;;;;;;31.80;23.38;;;20.20;99.90;;;;;;5058074;28;20461;-64
2022/08/17 06:34:44;;;;;;;33.63;24.08;;;20.30;99.90;;;;;;5059193;28;20200;-65
2022/08/17 06:37:27;;;;;;;31.63;24.70;;;20.40;99.90;;;;;;5059377;28;20421;-64
2022/08/17 06:40:02;;;;;;;34.03;24.77;;;20.50;99.90;;;;;;5045573;28;20208;-64
2022/08/17 06:42:39;;;;;;;35.88;27.42;;;20.50;99.90;;;;;;5062716;28;20220;-65
2022/08/17 06:45:10;;;;;;;35.50;25.77;;;20.60;99.90;;;;;;5025350;28;20287;-64
2022/08/17 06:47:46;;;;;;;39.97;26.60;;;20.60;99.90;;;;;;5060978;28;20192;-64
2022/08/17 06:50:19;;;;;;;35.58;26.02;;;20.60;99.90;;;;;;5060790;28;20454;-65
2022/08/17 06:52:53;;;;;;;36.47;26.88;;;20.60;99.90;;;;;;5059870;28;20208;-65
2022/08/17 06:55:26;;;;;;;37.45;27.98;;;20.70;99.90;;;;;;5047899;28;20262;-64
2022/08/17 06:57:58;;;;;;;35.92;26.85;;;20.90;99.90;;;;;;5045291;28;20193;-63
2022/08/17 07:00:32;;;;;;;35.78;26.38;;;23.90;99.90;;;;;;5007977;28;20745;-64
2022/08/17 07:03:05;;;;;;;36.45;27.58;;;21.00;99.90;;;;;;5058369;28;20881;-65
2022/08/17 07:05:36;;;;;;;39.38;29.25;;;20.80;99.90;;;;;;5042213;28;20229;-64
2022/08/17 07:08:10;;;;;;;36.75;28.17;;;20.80;99.90;;;;;;5058637;28;20196;-65
2022/08/17 07:10:42;;;;;;;38.75;28.38;;;20.80;99.90;;;;;;5041062;28;20226;-65
2022/08/17 07:13:24;;;;;;;42.05;28.52;;;19.60;99.20;;;;;;5049328;28;20208;-65
2022/08/17 07:15:55;;;;;;;39.58;28.35;;;20.80;99.10;;;;;;5014821;28;20300;-64
2022/08/17 07:18:31;;;;;;;38.75;28.50;;;20.80;98.70;;;;;;5059214;28;20200;-66
2022/08/17 07:21:06;;;;;;;40.30;29.27;;;21.00;99.90;;;;;;5033830;28;20204;-64
2022/08/17 07:23:43;;;;;;;38.22;29.08;;;20.90;97.60;;;;;;5050564;28;20234;-64
2022/08/17 07:26:12;;;;;;;36.30;26.92;;;20.90;97.60;;;;;;5040309;28;20220;-63
2022/08/17 07:28:40;;;;;;;35.42;27.65;;;21.00;97.30;;;;;;5049903;28;20357;-63
2022/08/17 07:31:08;;;;;;;37.88;29.35;;;21.00;95.80;;;;;;5014832;28;20296;-64
2022/08/17 07:33:38;;;;;;;37.05;26.90;;;21.00;95.20;;;;;;5055091;28;20278;-64
2022/08/17 07:36:23;;;;;;;36.20;26.88;;;22.30;96.20;;;;;;5037475;28;20321;-64
2022/08/17 07:38:55;;;;;;;35.33;26.70;;;21.20;95.30;;;;;;5029583;28;20768;-64
2022/08/17 07:41:22;;;;;;;35.60;27.95;;;;;;;;;;5043298;28;20204;-63
2022/08/17 07:43:51;;;;;;;35.78;27.42;;;21.30;93.00;;;;;;5035980;28;20584;-64
2022/08/17 07:49:24;;;;;;;43.75;25.38;;;21.30;91.60;;;;;;5043330;28;22719;-64
2022/08/17 07:51:58;;;;;;;34.22;24.55;;;21.00;90.70;;;;;;5058040;28;20436;-64
2022/08/17 07:54:30;;;;;;;30.73;23.95;;;21.50;87.00;;;;;;5055158;28;20223;-64
2022/08/17 07:56:59;;;;;;;30.80;24.05;;;21.90;87.00;;;;;;5045042;28;20939;-63
2022/08/17 07:59:29;;;;;;;31.17;23.08;;;21.50;84.90;;;;;;5066772;28;20203;-64
2022/08/17 08:02:06;;;;;;;31.85;24.77;;;21.50;79.40;;;;;;5025202;28;20256;-64
2022/08/17 08:04:36;;;;;;;28.38;23.95;;;21.70;84.50;;;;;;5062012;28;20282;-63
2022/08/17 08:07:07;;;;;;;27.27;22.45;;;21.50;79.40;;;;;;5061499;28;20266;-63
2022/08/17 08:09:38;;;;;;;24.55;20.13;;;21.70;78.20;;;;;;5063538;28;20215;-64
2022/08/17 08:12:24;;;;;;;29.05;21.90;;;21.60;76.60;;;;;;5052792;28;20209;-63
2022/08/17 08:14:58;;;;;;;25.00;21.33;;;21.90;71.10;;;;;;5058608;28;20286;-63
2022/08/17 08:17:30;;;;;;;27.05;21.95;;;21.90;70.10;;;;;;5029121;28;20200;-63
2022/08/17 08:19:59;;;;;;;28.02;21.15;;;22.00;70.70;;;;;;5055971;28;20236;-63
2022/08/17 08:22:33;;;;;;;23.70;20.98;;;22.20;70.00;;;;;;5061385;28;20197;-63
2022/08/17 08:25:13;;;;;;;25.05;20.50;;;22.10;67.80;;;;;;5060491;28;20682;-63
2022/08/17 08:27:47;;;;;;;23.77;20.02;;;22.10;66.70;;;;;;5048347;28;20199;-64
2022/08/17 08:30:20;;;;;;;21.98;18.88;;;22.20;64.20;;;;;;5061045;28;20677;-64
2022/08/17 08:33:09;;;;;;;24.90;20.35;;;22.30;60.40;;;;;;5027606;28;20584;-64
2022/08/17 08:35:43;;;;;;;23.23;18.17;;;22.40;62.20;;;;;;5056159;28;20192;-63
2022/08/17 08:38:16;;;;;;;24.55;17.85;;;22.40;60.00;;;;;;5056222;28;20522;-63
2022/08/17 08:40:56;;;;;;;23.02;18.73;;;22.60;57.60;;;;;;5058673;28;20243;-63
2022/08/17 08:43:34;;;;;;;24.42;18.30;;;22.60;53.80;;;;;;5052573;28;20223;-64
2022/08/17 08:46:11;;;;;;;20.02;17.88;;;22.70;52.50;;;;;;5057389;28;20495;-64
2022/08/17 08:49:08;;;;;;;23.67;16.45;;;22.70;47.80;;;;;;5048629;28;20218;-64
2022/08/17 08:51:45;;;;;;;21.23;16.63;;;22.80;44.10;;;;;;5054479;28;20201;-64
2022/08/17 08:54:27;;;;;;;18.52;16.33;;;22.80;44.40;;;;;;5057805;28;20257;-64
2022/08/17 08:57:03;;;;;;;20.55;16.63;;;23.00;43.60;;;;;;5046384;28;20289;-64
2022/08/17 08:59:34;;;;;;;19.17;15.52;;;23.10;40.60;;;;;;5058786;28;20203;-64
2022/08/17 09:02:13;;;;;;;18.20;15.88;;;25.30;36.30;;;;;;5057757;28;20192;-63
2022/08/17 09:05:00;;;;;;;21.77;14.73;;;23.20;31.90;;;;;;5044323;28;20236;-64
2022/08/17 09:07:35;;;;;;;16.90;15.07;;;23.20;32.20;;;;;;5064540;28;20189;-64
2022/08/17 09:10:09;;;;;;;16.55;14.73;;;24.30;31.70;;;;;;5053472;28;21078;-64
2022/08/17 09:12:43;;;;;;;18.73;15.25;;;23.30;29.70;;;;;;5049197;28;20209;-64
2022/08/17 09:15:16;;;;;;;17.27;13.65;;;23.50;28.60;;;;;;5051654;28;20200;-64
2022/08/17 09:17:51;;;;;;;16.70;14.57;;;23.70;24.30;;;;;;5037911;28;20221;-63
2022/08/17 09:20:24;;;;;;;17.02;14.50;;;23.70;25.40;;;;;;5036503;28;20740;-64
2022/08/17 09:22:55;;;;;;;19.75;13.95;;;23.70;25.70;;;;;;5046050;28;20208;-64
2022/08/17 09:25:27;;;;;;;15.80;14.07;;;23.70;14.70;;;;;;5040037;28;20224;-64
2022/08/17 09:27:58;;;;;;;20.05;14.60;;;23.90;15.80;;;;;;5058307;28;20622;-64
2022/08/17 09:30:26;;;;;;;18.50;15.23;;;23.80;12.00;;;;;;5044653;28;20228;-63
2022/08/17 09:32:58;;;;;;;18.23;13.35;;;24.30;11.70;;;;;;5042006;28;20246;-64
2022/08/17 09:35:29;;;;;;;15.25;12.25;;;24.10;9.30;;;;;;5041223;28;20211;-64
2022/08/17 09:38:03;;;;;;;16.70;11.90;;;24.20;4.10;;;;;;5025470;28;20298;-63
2022/08/17 09:40:35;;;;;;;18.63;12.75;;;24.30;1.00;;;;;;5053979;28;20220;-64
2022/08/17 09:43:07;;;;;;;12.93;10.20;;;24.30;1.00;;;;;;5058764;28;20196;-63
2022/08/17 09:45:41;;;;;;;23.40;11.35;;;24.40;1.00;;;;;;5048544;28;20219;-64
2022/08/17 09:48:17;;;;;;;10.98;10.00;;;24.60;1.00;;;;;;5059312;28;20881;-64
2022/08/17 09:50:52;;;;;;;13.00;9.27;;;24.60;1.00;;;;;;5052422;28;20208;-63
2022/08/17 09:53:19;;;;;;;11.95;9.77;;;24.70;1.00;;;;;;5037159;28;20890;-63
2022/08/17 09:56:01;;;;;;;13.88;9.55;;;24.80;1.00;;;;;;5059991;28;20200;-63
2022/08/17 09:58:39;;;;;;;11.35;10.15;;;25.00;1.00;;;;;;5059265;28;20200;-63
2022/08/17 10:01:16;;;;;;;11.68;8.95;;;25.10;1.00;;;;;;5048140;28;20210;-63
2022/08/17 10:04:02;;;;;;;13.63;8.52;;;25.10;1.00;;;;;;5061493;28;20211;-63
2022/08/17 10:06:33;;;;;;;13.68;10.40;;;25.20;1.00;;;;;;5047788;28;20228;-64
2022/08/17 10:09:07;;;;;;;13.15;9.45;;;25.60;99.90;;;;;;5037446;28;20209;-64
2022/08/17 10:14:32;;;;;;;8.23;7.38;;;25.70;99.90;;;;;;5051137;28;20262;-62
2022/08/17 10:17:05;;;;;;;8.98;8.10;;;25.00;1.00;;;;;;5048966;28;20200;-62
2022/08/17 10:19:37;;;;;;;11.90;7.90;;;25.60;1.00;;;;;;5056326;28;20204;-62
2022/08/17 10:27:55;;;;;;;10.35;7.05;;;25.50;1.00;;;;;;5052899;28;20286;-63
2022/08/17 10:30:25;;;;;;;11.60;6.82;;;25.60;1.00;;;;;;5046118;28;20232;-63
2022/08/17 10:32:58;;;;;;;7.38;6.38;;;25.70;1.00;;;;;;5043861;28;20239;-63
2022/08/17 10:35:37;;;;;;;8.52;6.30;;;25.70;1.00;;;;;;5061306;28;20323;-63
2022/08/17 10:38:40;;;;;;;6.88;5.55;;;25.70;1.00;;;;;;5034149;28;20220;-61
2022/08/17 10:41:23;;;;;;;5.50;4.70;;;25.70;99.90;;;;;;5033193;28;20208;-63
2022/08/17 10:44:00;;;;;;;5.72;5.13;;;25.70;1.00;;;;;;5056430;28;20254;-63
2022/08/17 10:46:50;;;;;;;7.47;5.43;;;25.70;1.00;;;;;;5040071;28;20227;-64
2022/08/17 10:49:29;;;;;;;6.22;5.30;;;26.40;1.00;;;;;;5039387;28;20308;-63
2022/08/17 10:51:59;;;;;;;6.60;5.50;;;25.80;1.00;;;;;;5042471;28;20208;-63
2022/08/17 10:55:07;;;;;;;7.72;4.97;;;26.50;99.90;;;;;;5034227;28;20212;-63
2022/08/17 10:57:39;;;;;;;6.45;5.78;;;26.10;99.90;;;;;;5047309;28;20300;-63
2022/08/17 11:00:12;;;;;;;6.25;5.70;;;26.20;99.90;;;;;;5057270;28;20201;-63
2022/08/17 11:02:48;;;;;;;8.23;5.05;;;26.10;99.90;;;;;;5053441;28;20215;-63
2022/08/17 11:05:49;;;;;;;5.78;5.22;;;26.20;99.90;;;;;;5061696;28;20262;-63
2022/08/17 11:08:55;;;;;;;5.90;5.32;;;26.20;1.00;;;;;;5049476;28;20264;-63
2022/08/17 11:11:37;;;;;;;7.90;6.40;;;26.20;1.00;;;;;;5035537;28;20895;-63
2022/08/17 11:14:20;;;;;;;6.68;5.35;;;26.30;1.00;;;;;;5063724;28;20218;-63
2022/08/17 11:17:11;;;;;;;8.02;6.20;;;26.30;1.00;;;;;;5057474;28;20238;-62
2022/08/17 11:20:14;;;;;;;5.95;5.35;;;26.30;1.00;;;;;;5051434;28;20433;-62
2022/08/17 11:23:04;;;;;;;10.15;6.13;;;26.30;1.00;;;;;;5052631;28;20228;-63
2022/08/17 11:25:38;;;;;;;5.90;5.30;;;26.30;1.00;;;;;;5036867;28;20721;-62
2022/08/17 11:28:09;;;;;;;7.10;5.47;;;26.30;1.00;;;;;;5057513;28;20211;-62
2022/08/17 11:30:47;;;;;;;7.72;5.40;;;26.30;1.00;;;;;;5055763;28;20227;-64
2022/08/17 11:33:52;;;;;;;7.88;5.22;;;26.40;1.00;;;;;;5054821;28;20196;-64
2022/08/17 11:36:34;;;;;;;5.60;4.97;;;26.50;1.00;;;;;;5057996;28;20197;-63
2022/08/17 11:39:05;;;;;;;8.07;4.95;;;26.50;1.00;;;;;;5056190;28;20216;-63
2022/08/17 11:41:41;;;;;;;8.77;5.72;;;26.60;1.00;;;;;;5033143;28;20221;-63
2022/08/17 11:44:26;;;;;;;11.68;5.85;;;26.60;1.00;;;;;;5056529;28;20231;-64
2022/08/17 11:53:27;;;;;;;6.68;5.20;;;26.60;1.00;;;;;;5025491;28;20200;-63
2022/08/17 11:56:10;;;;;;;5.68;5.18;;;26.60;1.00;;;;;;5044921;28;20204;-64
2022/08/17 11:58:41;;;;;;;7.03;5.50;;;26.30;1.00;;;;;;5047206;28;20200;-63
2022/08/17 12:01:10;;;;;;;7.03;5.85;;;26.70;99.90;;;;;;5059886;28;20200;-63
2022/08/17 12:03:52;;;;;;;6.38;5.78;;;26.80;99.90;;;;;;5042201;28;20271;-63
2022/08/17 12:06:41;;;;;;;7.40;5.30;;;26.80;99.90;;;;;;5049394;28;20197;-63
2022/08/17 12:09:16;;;;;;;6.32;5.72;;;26.80;1.00;;;;;;5052122;28;20365;-64
2022/08/17 12:11:48;;;;;;;6.97;6.20;;;28.40;1.00;;;;;;5022734;28;20825;-64
2022/08/17 12:14:21;;;;;;;7.45;5.75;;;26.50;1.00;;;;;;5048954;28;20315;-64
2022/08/17 12:17:07;;;;;;;6.30;5.38;;;26.60;1.00;;;;;;5058409;28;20748;-64
2022/08/17 12:19:36;;;;;;;10.63;5.20;;;26.70;99.90;;;;;;5055460;28;20227;-65
2022/08/17 12:22:08;;;;;;;6.05;4.47;;;26.70;99.90;;;;;;5046037;28;20221;-61
2022/08/17 12:24:46;;;;;;;7.07;5.15;;;26.70;99.90;;;;;;5039397;28;20968;-63
2022/08/17 12:27:23;;;;;;;5.35;4.88;;;26.90;53.30;;;;;;5061596;28;20241;-63
2022/08/17 12:29:53;;;;;;;8.73;5.00;;;26.90;33.30;;;;;;5040041;28;20215;-63
2022/08/17 12:32:21;;;;;;;5.40;4.78;;;26.90;1.00;;;;;;5061097;28;20200;-63
2022/08/17 12:34:50;;;;;;;4.82;3.95;;;26.80;1.00;;;;;;5053126;28;20196;-63
2022/08/17 12:37:21;;;;;;;6.35;3.92;;;27.00;1.00;;;;;;5047113;28;20224;-61
2022/08/17 12:40:00;;;;;;;4.20;3.80;;;26.70;1.00;;;;;;5047156;28;20196;-64
2022/08/17 12:42:30;;;;;;;9.23;3.80;;;26.70;1.00;;;;;;5044918;28;20200;-63
2022/08/17 12:44:58;;;;;;;5.35;4.15;;;26.80;1.00;;;;;;5033468;28;20329;-64
2022/08/17 12:47:28;;;;;;;4.25;3.90;;;26.70;1.00;;;;;;5054589;28;20283;-63
2022/08/17 12:50:07;;;;;;;5.05;3.70;;;26.90;1.00;;;;;;5054436;28;20311;-64
2022/08/17 12:52:38;;;;;;;4.15;3.70;;;26.90;99.90;;;;;;5043267;28;20207;-64
2022/08/17 12:55:07;;;;;;;6.45;3.75;;;27.00;99.90;;;;;;5042692;28;20211;-64
2022/08/17 12:57:41;;;;;;;4.78;3.55;;;27.00;99.90;;;;;;5039702;28;20963;-64
2022/08/17 13:00:16;;;;;;;4.07;3.70;;;27.00;99.90;;;;;;5030829;28;20208;-64
2022/08/17 13:02:46;;;;;;;3.72;3.42;;;27.10;99.90;;;;;;5046055;28;20224;-63
2022/08/17 13:05:22;;;;;;;5.57;3.65;;;27.10;99.90;;;;;;5051945;28;20505;-63
2022/08/17 13:07:51;;;;;;;6.70;4.80;;;27.30;99.90;;;;;;5033119;28;22035;-63
2022/08/17 13:10:22;;;;;;;5.00;4.45;;;27.40;99.90;;;;;;5049556;28;20344;-64
2022/08/17 13:12:51;;;;;;;5.22;4.72;;;27.30;99.90;;;;;;5029981;28;20535;-64
2022/08/17 13:15:25;;;;;;;8.68;4.75;;;27.30;99.90;;;;;;5031460;28;20729;-63
2022/08/17 13:18:28;;;;;;;7.68;4.68;;;27.30;99.90;;;;;;5055637;28;20602;-64
2022/08/17 13:20:58;;;;;;;4.80;4.15;;;27.30;99.90;;;;;;5055340;28;20612;-63
2022/08/17 13:23:28;;;;;;;5.13;4.63;;;27.50;99.90;;;;;;5040690;28;20219;-63
2022/08/17 13:25:55;;;;;;;8.00;4.38;;;27.30;99.90;;;;;;5048521;28;20236;-63
2022/08/17 13:28:26;;;;;;;5.90;4.10;;;27.30;99.90;;;;;;5020653;28;20220;-64
2022/08/17 13:31:22;;;;;;;4.47;4.05;;;27.20;99.90;;;;;;5031506;28;20201;-63
2022/08/17 13:33:49;;;;;;;7.18;3.72;;;27.30;99.90;;;;;;5054490;28;20291;-64